sensor_id;sensor_type;location;lat;lon;timestamp;P1;durP1;ratioP1;P2;durP2;ratioP2
3677;SDS011;1855;50.934;6.958;2023-07-20T00:01:29;3.80;;;3.10;;
3677;SDS011;1855;50.934;6.958;2023-07-20T00:03:56;4.75;;;3.30;;
3677;SDS011;1855;50.934;6.958;2023-07-20T00:06:23;3.80;;;3.20;;
3677;SDS011;1855;50.934;6.958;2023-07-20T00:08:52;4.07;;;2.83;;
3677;SDS011;1855;50.934;6.958;2023-07-20T00:11:21;4.53;;;3.10;;
3677;SDS011;1855;50.934;6.958;2023-07-20T00:13:51;4.05;;;3.35;;
3677;SDS011;1855;50.934;6.958;2023-07-20T00:16:18;4.13;;;3.00;;
3677;SDS011;1855;50.934;6.958;2023-07-20T00:18:44;5.40;;;3.30;;
3677;SDS011;1855;50.934;6.958;2023-07-20T00:21:11;4.43;;;2.90;;
3677;SDS011;1855;50.934;6.958;2023-07-20T00:23:38;4.75;;;3.15;;
3677;SDS011;1855;50.934;6.958;2023-07-20T00:26:04;3.65;;;3.00;;
3677;SDS011;1855;50.934;6.958;2023-07-20T00:28:32;3.88;;;3.00;;
3677;SDS011;1855;50.934;6.958;2023-07-20T00:30:59;4.85;;;3.20;;
3677;SDS011;1855;50.934;6.958;2023-07-20T00:33:26;3.38;;;2.80;;
3677;SDS011;1855;50.934;6.958;2023-07-20T00:35:53;3.20;;;2.90;;
3677;SDS011;1855;50.934;6.958;2023-07-20T00:38:19;3.93;;;3.07;;
3677;SDS011;1855;50.934;6.958;2023-07-20T00:40:46;4.13;;;3.30;;
3677;SDS011;1855;50.934;6.958;2023-07-20T00:43:14;5.97;;;3.40;;
3677;SDS011;1855;50.934;6.958;2023-07-20T00:45:42;5.05;;;3.55;;
3677;SDS011;1855;50.934;6.958;2023-07-20T00:48:10;4.35;;;3.30;;
3677;SDS011;1855;50.934;6.958;2023-07-20T00:50:38;6.10;;;3.60;;
3677;SDS011;1855;50.934;6.958;2023-07-20T00:53:06;5.57;;;3.70;;
3677;SDS011;1855;50.934;6.958;2023-07-20T00:55:34;5.33;;;3.70;;
3677;SDS011;1855;50.934;6.958;2023-07-20T00:58:00;4.97;;;3.88;;
3677;SDS011;1855;50.934;6.958;2023-07-20T01:00:27;4.65;;;3.70;;
3677;SDS011;1855;50.934;6.958;2023-07-20T01:02:55;6.37;;;3.37;;
3677;SDS011;1855;50.934;6.958;2023-07-20T01:05:22;4.95;;;3.45;;
3677;SDS011;1855;50.934;6.958;2023-07-20T01:07:59;5.55;;;3.78;;
3677;SDS011;1855;50.934;6.958;2023-07-20T01:10:31;4.90;;;3.10;;
3677;SDS011;1855;50.934;6.958;2023-07-20T01:13:03;3.83;;;3.42;;
3677;SDS011;1855;50.934;6.958;2023-07-20T01:15:33;4.20;;;3.42;;
3677;SDS011;1855;50.934;6.958;2023-07-20T01:18:01;5.72;;;3.40;;
3677;SDS011;1855;50.934;6.958;2023-07-20T01:20:29;5.13;;;3.40;;
3677;SDS011;1855;50.934;6.958;2023-07-20T01:23:09;4.77;;;3.30;;
3677;SDS011;1855;50.934;6.958;2023-07-20T01:26:02;4.50;;;3.45;;
3677;SDS011;1855;50.934;6.958;2023-07-20T01:28:37;4.60;;;3.40;;
3677;SDS011;1855;50.934;6.958;2023-07-20T01:31:21;4.43;;;3.40;;
3677;SDS011;1855;50.934;6.958;2023-07-20T01:33:50;3.67;;;2.80;;
3677;SDS011;1855;50.934;6.958;2023-07-20T01:36:21;3.40;;;2.75;;
3677;SDS011;1855;50.934;6.958;2023-07-20T01:38:49;4.63;;;3.17;;
3677;SDS011;1855;50.934;6.958;2023-07-20T01:41:16;4.63;;;3.10;;
3677;SDS011;1855;50.934;6.958;2023-07-20T01:43:44;4.25;;;3.05;;
3677;SDS011;1855;50.934;6.958;2023-07-20T01:46:11;3.35;;;3.05;;
3677;SDS011;1855;50.934;6.958;2023-07-20T01:48:42;3.90;;;2.95;;
3677;SDS011;1855;50.934;6.958;2023-07-20T01:51:09;4.50;;;3.20;;
3677;SDS011;1855;50.934;6.958;2023-07-20T01:53:37;3.97;;;3.20;;
3677;SDS011;1855;50.934;6.958;2023-07-20T01:56:03;5.32;;;3.00;;
3677;SDS011;1855;50.934;6.958;2023-07-20T01:58:30;4.03;;;3.10;;
3677;SDS011;1855;50.934;6.958;2023-07-20T02:00:57;4.50;;;3.30;;
3677;SDS011;1855;50.934;6.958;2023-07-20T02:03:24;4.07;;;3.17;;
3677;SDS011;1855;50.934;6.958;2023-07-20T02:05:53;3.95;;;3.17;;
3677;SDS011;1855;50.934;6.958;2023-07-20T02:08:19;4.13;;;3.20;;
3677;SDS011;1855;50.934;6.958;2023-07-20T02:10:46;3.80;;;3.20;;
3677;SDS011;1855;50.934;6.958;2023-07-20T02:13:13;4.30;;;3.40;;
3677;SDS011;1855;50.934;6.958;2023-07-20T02:15:40;5.50;;;3.35;;
3677;SDS011;1855;50.934;6.958;2023-07-20T02:18:07;3.83;;;3.45;;
3677;SDS011;1855;50.934;6.958;2023-07-20T02:20:34;4.00;;;3.65;;
3677;SDS011;1855;50.934;6.958;2023-07-20T02:23:03;4.30;;;3.60;;
3677;SDS011;1855;50.934;6.958;2023-07-20T02:25:29;4.40;;;3.40;;
3677;SDS011;1855;50.934;6.958;2023-07-20T02:27:56;4.20;;;3.60;;
3677;SDS011;1855;50.934;6.958;2023-07-20T02:30:23;4.53;;;3.80;;
3677;SDS011;1855;50.934;6.958;2023-07-20T02:32:50;4.85;;;3.72;;
3677;SDS011;1855;50.934;6.958;2023-07-20T02:35:17;5.10;;;3.95;;
3677;SDS011;1855;50.934;6.958;2023-07-20T02:37:43;5.43;;;3.90;;
3677;SDS011;1855;50.934;6.958;2023-07-20T02:40:12;5.15;;;4.00;;
3677;SDS011;1855;50.934;6.958;2023-07-20T02:42:39;5.70;;;4.38;;
3677;SDS011;1855;50.934;6.958;2023-07-20T02:45:06;5.53;;;4.10;;
3677;SDS011;1855;50.934;6.958;2023-07-20T02:47:33;4.70;;;4.00;;
3677;SDS011;1855;50.934;6.958;2023-07-20T02:50:00;5.22;;;3.90;;
3677;SDS011;1855;50.934;6.958;2023-07-20T02:52:27;5.22;;;3.85;;
3677;SDS011;1855;50.934;6.958;2023-07-20T02:54:54;6.30;;;4.35;;
3677;SDS011;1855;50.934;6.958;2023-07-20T02:57:23;4.90;;;4.40;;
3677;SDS011;1855;50.934;6.958;2023-07-20T02:59:49;4.70;;;4.20;;
3677;SDS011;1855;50.934;6.958;2023-07-20T03:02:16;5.82;;;4.40;;
3677;SDS011;1855;50.934;6.958;2023-07-20T03:04:43;5.68;;;3.78;;
3677;SDS011;1855;50.934;6.958;2023-07-20T03:07:09;4.97;;;3.70;;
3677;SDS011;1855;50.934;6.958;2023-07-20T03:09:36;5.10;;;3.65;;
3677;SDS011;1855;50.934;6.958;2023-07-20T03:12:03;5.28;;;3.60;;
3677;SDS011;1855;50.934;6.958;2023-07-20T03:14:32;4.97;;;3.72;;
3677;SDS011;1855;50.934;6.958;2023-07-20T03:16:58;6.18;;;4.10;;
3677;SDS011;1855;50.934;6.958;2023-07-20T03:19:25;4.57;;;3.80;;
3677;SDS011;1855;50.934;6.958;2023-07-20T03:21:53;4.68;;;3.60;;
3677;SDS011;1855;50.934;6.958;2023-07-20T03:24:19;4.90;;;3.85;;
3677;SDS011;1855;50.934;6.958;2023-07-20T03:26:48;4.30;;;3.30;;
3677;SDS011;1855;50.934;6.958;2023-07-20T03:29:15;4.90;;;3.70;;
3677;SDS011;1855;50.934;6.958;2023-07-20T03:31:43;4.97;;;3.63;;
3677;SDS011;1855;50.934;6.958;2023-07-20T03:34:10;4.57;;;3.73;;
3677;SDS011;1855;50.934;6.958;2023-07-20T03:36:36;4.57;;;3.00;;
3677;SDS011;1855;50.934;6.958;2023-07-20T03:39:03;4.15;;;3.70;;
3677;SDS011;1855;50.934;6.958;2023-07-20T03:41:30;4.85;;;3.50;;
3677;SDS011;1855;50.934;6.958;2023-07-20T03:43:57;4.15;;;3.50;;
3677;SDS011;1855;50.934;6.958;2023-07-20T03:46:23;4.10;;;3.70;;
3677;SDS011;1855;50.934;6.958;2023-07-20T03:48:51;4.45;;;3.30;;
3677;SDS011;1855;50.934;6.958;2023-07-20T03:51:18;5.00;;;3.47;;
3677;SDS011;1855;50.934;6.958;2023-07-20T03:53:45;4.75;;;3.50;;
3677;SDS011;1855;50.934;6.958;2023-07-20T03:56:11;6.22;;;3.45;;
3677;SDS011;1855;50.934;6.958;2023-07-20T03:58:38;4.70;;;3.42;;
3677;SDS011;1855;50.934;6.958;2023-07-20T04:01:05;4.53;;;3.33;;
3677;SDS011;1855;50.934;6.958;2023-07-20T04:03:33;4.53;;;3.45;;
3677;SDS011;1855;50.934;6.958;2023-07-20T04:06:02;4.57;;;3.30;;
3677;SDS011;1855;50.934;6.958;2023-07-20T04:08:28;5.45;;;3.20;;
3677;SDS011;1855;50.934;6.958;2023-07-20T04:10:55;4.00;;;3.50;;
3677;SDS011;1855;50.934;6.958;2023-07-20T04:13:22;4.10;;;3.10;;
3677;SDS011;1855;50.934;6.958;2023-07-20T04:15:49;4.57;;;3.20;;
3677;SDS011;1855;50.934;6.958;2023-07-20T04:18:15;4.03;;;3.28;;
3677;SDS011;1855;50.934;6.958;2023-07-20T04:20:42;5.17;;;3.40;;
3677;SDS011;1855;50.934;6.958;2023-07-20T04:23:10;4.90;;;3.00;;
3677;SDS011;1855;50.934;6.958;2023-07-20T04:25:38;4.43;;;3.30;;
3677;SDS011;1855;50.934;6.958;2023-07-20T04:28:06;7.55;;;3.45;;
3677;SDS011;1855;50.934;6.958;2023-07-20T04:30:34;5.15;;;3.65;;
3677;SDS011;1855;50.934;6.958;2023-07-20T04:33:02;5.40;;;3.42;;
3677;SDS011;1855;50.934;6.958;2023-07-20T04:35:44;6.85;;;3.40;;
3677;SDS011;1855;50.934;6.958;2023-07-20T04:38:14;5.88;;;3.88;;
3677;SDS011;1855;50.934;6.958;2023-07-20T04:40:42;6.45;;;3.50;;
3677;SDS011;1855;50.934;6.958;2023-07-20T04:43:09;5.93;;;3.40;;
3677;SDS011;1855;50.934;6.958;2023-07-20T04:45:36;6.03;;;3.35;;
3677;SDS011;1855;50.934;6.958;2023-07-20T04:48:04;4.68;;;3.28;;
3677;SDS011;1855;50.934;6.958;2023-07-20T04:50:33;5.35;;;3.60;;
3677;SDS011;1855;50.934;6.958;2023-07-20T04:53:00;3.95;;;3.33;;
3677;SDS011;1855;50.934;6.958;2023-07-20T04:55:29;6.22;;;3.80;;
3677;SDS011;1855;50.934;6.958;2023-07-20T04:57:55;7.00;;;3.65;;
3677;SDS011;1855;50.934;6.958;2023-07-20T05:00:22;4.70;;;3.65;;
3677;SDS011;1855;50.934;6.958;2023-07-20T05:02:49;5.82;;;4.47;;
3677;SDS011;1855;50.934;6.958;2023-07-20T05:05:16;5.47;;;3.67;;
3677;SDS011;1855;50.934;6.958;2023-07-20T05:07:43;6.82;;;4.15;;
3677;SDS011;1855;50.934;6.958;2023-07-20T05:10:09;5.15;;;3.97;;
3677;SDS011;1855;50.934;6.958;2023-07-20T05:12:38;5.10;;;3.92;;
3677;SDS011;1855;50.934;6.958;2023-07-20T05:15:05;5.40;;;3.90;;
3677;SDS011;1855;50.934;6.958;2023-07-20T05:17:32;5.43;;;4.35;;
3677;SDS011;1855;50.934;6.958;2023-07-20T05:19:59;4.90;;;4.35;;
3677;SDS011;1855;50.934;6.958;2023-07-20T05:22:26;6.40;;;4.43;;
3677;SDS011;1855;50.934;6.958;2023-07-20T05:24:53;6.85;;;4.25;;
3677;SDS011;1855;50.934;6.958;2023-07-20T05:27:19;5.03;;;3.92;;
3677;SDS011;1855;50.934;6.958;2023-07-20T05:29:47;6.82;;;4.07;;
3677;SDS011;1855;50.934;6.958;2023-07-20T05:32:14;6.25;;;4.40;;
3677;SDS011;1855;50.934;6.958;2023-07-20T05:34:41;6.97;;;5.20;;
3677;SDS011;1855;50.934;6.958;2023-07-20T05:37:08;7.60;;;5.20;;
3677;SDS011;1855;50.934;6.958;2023-07-20T05:39:34;6.18;;;4.88;;
3677;SDS011;1855;50.934;6.958;2023-07-20T05:42:01;5.85;;;5.25;;
3677;SDS011;1855;50.934;6.958;2023-07-20T05:44:28;5.93;;;5.32;;
3677;SDS011;1855;50.934;6.958;2023-07-20T05:46:57;7.30;;;6.60;;
3677;SDS011;1855;50.934;6.958;2023-07-20T05:49:23;7.72;;;5.65;;
3677;SDS011;1855;50.934;6.958;2023-07-20T05:51:50;7.45;;;6.70;;
3677;SDS011;1855;50.934;6.958;2023-07-20T05:54:17;6.60;;;5.90;;
3677;SDS011;1855;50.934;6.958;2023-07-20T05:56:45;7.00;;;5.83;;
3677;SDS011;1855;50.934;6.958;2023-07-20T05:59:12;9.57;;;6.00;;
3677;SDS011;1855;50.934;6.958;2023-07-20T06:01:38;10.73;;;7.57;;
3677;SDS011;1855;50.934;6.958;2023-07-20T06:04:06;8.88;;;8.00;;
3677;SDS011;1855;50.934;6.958;2023-07-20T06:06:33;9.75;;;8.38;;
3677;SDS011;1855;50.934;6.958;2023-07-20T06:09:00;8.90;;;8.10;;
3677;SDS011;1855;50.934;6.958;2023-07-20T06:11:28;8.45;;;7.65;;
3677;SDS011;1855;50.934;6.958;2023-07-20T06:13:55;9.10;;;8.20;;
3677;SDS011;1855;50.934;6.958;2023-07-20T06:16:22;8.73;;;7.90;;
3677;SDS011;1855;50.934;6.958;2023-07-20T06:18:49;11.77;;;9.00;;
3677;SDS011;1855;50.934;6.958;2023-07-20T06:21:17;8.77;;;8.02;;
3677;SDS011;1855;50.934;6.958;2023-07-20T06:23:44;10.00;;;9.00;;
3677;SDS011;1855;50.934;6.958;2023-07-20T06:26:11;11.43;;;10.38;;
3677;SDS011;1855;50.934;6.958;2023-07-20T06:28:37;9.98;;;8.98;;
3677;SDS011;1855;50.934;6.958;2023-07-20T06:31:04;9.73;;;8.82;;
3677;SDS011;1855;50.934;6.958;2023-07-20T06:33:31;9.43;;;8.52;;
3677;SDS011;1855;50.934;6.958;2023-07-20T06:35:59;10.18;;;9.38;;
3677;SDS011;1855;50.934;6.958;2023-07-20T06:38:27;11.95;;;9.20;;
3677;SDS011;1855;50.934;6.958;2023-07-20T06:40:54;10.30;;;9.38;;
3677;SDS011;1855;50.934;6.958;2023-07-20T06:43:21;10.20;;;9.20;;
3677;SDS011;1855;50.934;6.958;2023-07-20T06:45:50;9.50;;;8.50;;
3677;SDS011;1855;50.934;6.958;2023-07-20T06:48:18;10.40;;;9.40;;
3677;SDS011;1855;50.934;6.958;2023-07-20T06:50:45;11.00;;;10.10;;
3677;SDS011;1855;50.934;6.958;2023-07-20T06:53:12;10.80;;;9.90;;
3677;SDS011;1855;50.934;6.958;2023-07-20T06:55:41;9.50;;;8.50;;
3677;SDS011;1855;50.934;6.958;2023-07-20T06:58:08;9.52;;;8.52;;
3677;SDS011;1855;50.934;6.958;2023-07-20T07:00:35;9.15;;;8.25;;
3677;SDS011;1855;50.934;6.958;2023-07-20T07:03:01;9.00;;;8.20;;
3677;SDS011;1855;50.934;6.958;2023-07-20T07:05:28;9.98;;;7.13;;
3677;SDS011;1855;50.934;6.958;2023-07-20T07:07:56;8.32;;;7.53;;
3677;SDS011;1855;50.934;6.958;2023-07-20T07:10:22;8.55;;;7.65;;
3677;SDS011;1855;50.934;6.958;2023-07-20T07:12:50;8.63;;;7.70;;
3677;SDS011;1855;50.934;6.958;2023-07-20T07:15:17;7.53;;;6.75;;
3677;SDS011;1855;50.934;6.958;2023-07-20T07:17:44;7.90;;;7.20;;
3677;SDS011;1855;50.934;6.958;2023-07-20T07:20:11;8.00;;;7.30;;
3677;SDS011;1855;50.934;6.958;2023-07-20T07:22:38;7.57;;;6.88;;
3677;SDS011;1855;50.934;6.958;2023-07-20T07:25:05;8.80;;;7.30;;
3677;SDS011;1855;50.934;6.958;2023-07-20T07:27:32;7.60;;;6.70;;
3677;SDS011;1855;50.934;6.958;2023-07-20T07:30:00;7.70;;;6.90;;
3677;SDS011;1855;50.934;6.958;2023-07-20T07:32:27;7.93;;;7.13;;
3677;SDS011;1855;50.934;6.958;2023-07-20T07:34:54;7.40;;;6.70;;
3677;SDS011;1855;50.934;6.958;2023-07-20T07:37:23;7.40;;;6.70;;
3677;SDS011;1855;50.934;6.958;2023-07-20T07:39:50;7.55;;;6.00;;
3677;SDS011;1855;50.934;6.958;2023-07-20T07:42:17;7.28;;;6.57;;
3677;SDS011;1855;50.934;6.958;2023-07-20T07:44:44;7.45;;;6.85;;
3677;SDS011;1855;50.934;6.958;2023-07-20T07:47:12;6.30;;;5.80;;
3677;SDS011;1855;50.934;6.958;2023-07-20T07:49:39;7.53;;;6.60;;
3677;SDS011;1855;50.934;6.958;2023-07-20T07:52:06;7.95;;;7.25;;
3677;SDS011;1855;50.934;6.958;2023-07-20T07:54:33;7.13;;;6.50;;
3677;SDS011;1855;50.934;6.958;2023-07-20T07:57:00;8.05;;;6.80;;
3677;SDS011;1855;50.934;6.958;2023-07-20T07:59:26;8.60;;;6.30;;
3677;SDS011;1855;50.934;6.958;2023-07-20T08:01:53;6.10;;;5.60;;
3677;SDS011;1855;50.934;6.958;2023-07-20T08:04:21;7.97;;;6.53;;
3677;SDS011;1855;50.934;6.958;2023-07-20T08:06:48;10.77;;;8.18;;
3677;SDS011;1855;50.934;6.958;2023-07-20T08:09:15;7.10;;;5.93;;
3677;SDS011;1855;50.934;6.958;2023-07-20T08:11:41;5.20;;;4.70;;
3677;SDS011;1855;50.934;6.958;2023-07-20T08:14:08;5.83;;;5.33;;
3677;SDS011;1855;50.934;6.958;2023-07-20T08:16:35;5.32;;;4.80;;
3677;SDS011;1855;50.934;6.958;2023-07-20T08:19:02;5.70;;;5.20;;
3677;SDS011;1855;50.934;6.958;2023-07-20T08:21:30;5.63;;;5.13;;
3677;SDS011;1855;50.934;6.958;2023-07-20T08:23:56;5.60;;;5.10;;
3677;SDS011;1855;50.934;6.958;2023-07-20T08:26:23;4.88;;;4.20;;
3677;SDS011;1855;50.934;6.958;2023-07-20T08:28:50;4.45;;;4.05;;
3677;SDS011;1855;50.934;6.958;2023-07-20T08:31:17;4.90;;;4.10;;
3677;SDS011;1855;50.934;6.958;2023-07-20T08:33:44;3.90;;;3.50;;
3677;SDS011;1855;50.934;6.958;2023-07-20T08:36:11;4.55;;;3.65;;
3677;SDS011;1855;50.934;6.958;2023-07-20T08:38:39;4.33;;;3.80;;
3677;SDS011;1855;50.934;6.958;2023-07-20T08:41:05;4.50;;;4.10;;
3677;SDS011;1855;50.934;6.958;2023-07-20T08:43:33;3.70;;;3.40;;
3677;SDS011;1855;50.934;6.958;2023-07-20T08:45:59;3.20;;;2.90;;
3677;SDS011;1855;50.934;6.958;2023-07-20T08:48:27;3.42;;;2.72;;
3677;SDS011;1855;50.934;6.958;2023-07-20T08:50:56;3.42;;;2.80;;
3677;SDS011;1855;50.934;6.958;2023-07-20T08:53:25;5.03;;;2.80;;
3677;SDS011;1855;50.934;6.958;2023-07-20T08:55:54;3.20;;;2.90;;
3677;SDS011;1855;50.934;6.958;2023-07-20T08:58:21;3.30;;;3.00;;
3677;SDS011;1855;50.934;6.958;2023-07-20T09:00:51;3.50;;;3.17;;
3677;SDS011;1855;50.934;6.958;2023-07-20T09:03:19;3.50;;;3.20;;
3677;SDS011;1855;50.934;6.958;2023-07-20T09:05:46;3.78;;;3.20;;
3677;SDS011;1855;50.934;6.958;2023-07-20T09:08:13;3.33;;;2.83;;
3677;SDS011;1855;50.934;6.958;2023-07-20T09:10:39;3.40;;;2.60;;
3677;SDS011;1855;50.934;6.958;2023-07-20T09:13:07;3.00;;;2.80;;
3677;SDS011;1855;50.934;6.958;2023-07-20T09:15:34;3.75;;;2.90;;
3677;SDS011;1855;50.934;6.958;2023-07-20T09:18:01;3.30;;;3.00;;
3677;SDS011;1855;50.934;6.958;2023-07-20T09:20:30;3.15;;;2.90;;
3677;SDS011;1855;50.934;6.958;2023-07-20T09:22:57;3.25;;;3.05;;
3677;SDS011;1855;50.934;6.958;2023-07-20T09:25:24;3.53;;;2.97;;
3677;SDS011;1855;50.934;6.958;2023-07-20T09:27:53;2.60;;;2.30;;
3677;SDS011;1855;50.934;6.958;2023-07-20T09:30:24;3.67;;;3.38;;
3677;SDS011;1855;50.934;6.958;2023-07-20T09:32:52;3.45;;;3.15;;
3677;SDS011;1855;50.934;6.958;2023-07-20T09:35:19;3.50;;;3.30;;
3677;SDS011;1855;50.934;6.958;2023-07-20T09:37:48;3.85;;;3.38;;
3677;SDS011;1855;50.934;6.958;2023-07-20T09:40:17;4.13;;;3.50;;
3677;SDS011;1855;50.934;6.958;2023-07-20T09:42:44;2.80;;;1.90;;
3677;SDS011;1855;50.934;6.958;2023-07-20T09:45:12;3.13;;;2.00;;
3677;SDS011;1855;50.934;6.958;2023-07-20T09:47:40;4.35;;;2.20;;
3677;SDS011;1855;50.934;6.958;2023-07-20T09:50:07;2.55;;;1.77;;
3677;SDS011;1855;50.934;6.958;2023-07-20T09:52:37;2.40;;;1.80;;
3677;SDS011;1855;50.934;6.958;2023-07-20T09:55:06;1.70;;;1.60;;
3677;SDS011;1855;50.934;6.958;2023-07-20T09:57:34;3.30;;;1.88;;
3677;SDS011;1855;50.934;6.958;2023-07-20T10:00:02;2.78;;;1.70;;
3677;SDS011;1855;50.934;6.958;2023-07-20T10:02:33;3.00;;;1.80;;
3677;SDS011;1855;50.934;6.958;2023-07-20T10:05:04;2.05;;;1.60;;
3677;SDS011;1855;50.934;6.958;2023-07-20T10:07:33;2.03;;;1.83;;
3677;SDS011;1855;50.934;6.958;2023-07-20T10:10:02;2.63;;;2.00;;
3677;SDS011;1855;50.934;6.958;2023-07-20T10:12:31;2.60;;;1.70;;
3677;SDS011;1855;50.934;6.958;2023-07-20T10:14:59;2.45;;;1.70;;
3677;SDS011;1855;50.934;6.958;2023-07-20T10:17:35;2.10;;;1.30;;
3677;SDS011;1855;50.934;6.958;2023-07-20T10:20:08;2.40;;;1.30;;
3677;SDS011;1855;50.934;6.958;2023-07-20T10:22:36;2.13;;;1.27;;
3677;SDS011;1855;50.934;6.958;2023-07-20T10:25:04;3.63;;;1.40;;
3677;SDS011;1855;50.934;6.958;2023-07-20T10:27:32;2.60;;;1.40;;
3677;SDS011;1855;50.934;6.958;2023-07-20T10:29:59;1.63;;;1.40;;
3677;SDS011;1855;50.934;6.958;2023-07-20T10:32:27;2.47;;;1.40;;
3677;SDS011;1855;50.934;6.958;2023-07-20T10:34:55;1.80;;;1.10;;
3677;SDS011;1855;50.934;6.958;2023-07-20T10:40:26;2.35;;;1.70;;
3677;SDS011;1855;50.934;6.958;2023-07-20T10:43:01;3.20;;;1.65;;
3677;SDS011;1855;50.934;6.958;2023-07-20T10:45:39;2.47;;;1.60;;
3677;SDS011;1855;50.934;6.958;2023-07-20T10:48:14;1.80;;;1.20;;
3677;SDS011;1855;50.934;6.958;2023-07-20T10:50:43;3.03;;;1.43;;
3677;SDS011;1855;50.934;6.958;2023-07-20T10:53:12;2.40;;;1.40;;
3677;SDS011;1855;50.934;6.958;2023-07-20T10:55:40;2.05;;;1.42;;
3677;SDS011;1855;50.934;6.958;2023-07-20T10:58:08;1.80;;;1.50;;
3677;SDS011;1855;50.934;6.958;2023-07-20T11:00:54;1.60;;;1.38;;
3677;SDS011;1855;50.934;6.958;2023-07-20T11:03:27;3.00;;;1.60;;
3677;SDS011;1855;50.934;6.958;2023-07-20T11:05:56;3.90;;;1.40;;
3677;SDS011;1855;50.934;6.958;2023-07-20T11:11:23;2.30;;;1.50;;
3677;SDS011;1855;50.934;6.958;2023-07-20T11:13:54;2.40;;;1.25;;
3677;SDS011;1855;50.934;6.958;2023-07-20T11:16:31;2.63;;;1.30;;
3677;SDS011;1855;50.934;6.958;2023-07-20T11:19:03;3.63;;;1.30;;
3677;SDS011;1855;50.934;6.958;2023-07-20T11:21:35;1.40;;;1.10;;
3677;SDS011;1855;50.934;6.958;2023-07-20T11:24:04;1.73;;;1.00;;
3677;SDS011;1855;50.934;6.958;2023-07-20T11:26:44;1.30;;;1.10;;
3677;SDS011;1855;50.934;6.958;2023-07-20T11:29:13;1.90;;;1.30;;
3677;SDS011;1855;50.934;6.958;2023-07-20T11:31:42;2.60;;;1.20;;
3677;SDS011;1855;50.934;6.958;2023-07-20T11:34:10;2.13;;;1.38;;
3677;SDS011;1855;50.934;6.958;2023-07-20T11:36:38;2.00;;;1.20;;
3677;SDS011;1855;50.934;6.958;2023-07-20T11:39:08;1.45;;;1.10;;
3677;SDS011;1855;50.934;6.958;2023-07-20T11:41:35;1.73;;;0.98;;
3677;SDS011;1855;50.934;6.958;2023-07-20T11:44:03;1.58;;;1.15;;
3677;SDS011;1855;50.934;6.958;2023-07-20T11:46:31;1.70;;;1.00;;
3677;SDS011;1855;50.934;6.958;2023-07-20T11:48:58;2.58;;;0.93;;
3677;SDS011;1855;50.934;6.958;2023-07-20T11:51:26;1.50;;;1.10;;
3677;SDS011;1855;50.934;6.958;2023-07-20T11:53:53;1.70;;;0.90;;
3677;SDS011;1855;50.934;6.958;2023-07-20T11:56:22;1.70;;;1.00;;
3677;SDS011;1855;50.934;6.958;2023-07-20T11:58:49;1.50;;;0.93;;
3677;SDS011;1855;50.934;6.958;2023-07-20T12:01:16;2.42;;;1.20;;
3677;SDS011;1855;50.934;6.958;2023-07-20T12:03:43;1.77;;;0.90;;
3677;SDS011;1855;50.934;6.958;2023-07-20T12:06:10;1.20;;;0.90;;
3677;SDS011;1855;50.934;6.958;2023-07-20T12:08:38;1.70;;;1.00;;
3677;SDS011;1855;50.934;6.958;2023-07-20T12:11:05;1.40;;;0.90;;
3677;SDS011;1855;50.934;6.958;2023-07-20T12:13:37;1.88;;;1.00;;
3677;SDS011;1855;50.934;6.958;2023-07-20T12:16:11;3.53;;;1.25;;
3677;SDS011;1855;50.934;6.958;2023-07-20T12:18:39;3.70;;;1.10;;
3677;SDS011;1855;50.934;6.958;2023-07-20T12:21:06;1.73;;;1.05;;
3677;SDS011;1855;50.934;6.958;2023-07-20T12:23:37;1.27;;;1.00;;
3677;SDS011;1855;50.934;6.958;2023-07-20T12:26:06;3.00;;;1.30;;
3677;SDS011;1855;50.934;6.958;2023-07-20T12:28:35;1.60;;;1.00;;
3677;SDS011;1855;50.934;6.958;2023-07-20T12:31:07;1.63;;;0.90;;
3677;SDS011;1855;50.934;6.958;2023-07-20T12:33:34;2.55;;;1.20;;
3677;SDS011;1855;50.934;6.958;2023-07-20T12:36:01;2.25;;;1.10;;
3677;SDS011;1855;50.934;6.958;2023-07-20T12:38:28;1.67;;;1.10;;
3677;SDS011;1855;50.934;6.958;2023-07-20T12:40:55;1.40;;;1.10;;
3677;SDS011;1855;50.934;6.958;2023-07-20T12:43:23;4.60;;;4.10;;
3677;SDS011;1855;50.934;6.958;2023-07-20T12:45:51;1.90;;;1.70;;
3677;SDS011;1855;50.934;6.958;2023-07-20T12:48:18;2.58;;;1.20;;
3677;SDS011;1855;50.934;6.958;2023-07-20T12:50:45;2.80;;;1.10;;
3677;SDS011;1855;50.934;6.958;2023-07-20T12:53:11;4.55;;;1.10;;
3677;SDS011;1855;50.934;6.958;2023-07-20T12:55:38;2.00;;;1.17;;
3677;SDS011;1855;50.934;6.958;2023-07-20T12:58:06;2.00;;;1.30;;
3677;SDS011;1855;50.934;6.958;2023-07-20T13:00:33;2.60;;;1.00;;
3677;SDS011;1855;50.934;6.958;2023-07-20T13:03:01;1.60;;;1.10;;
3677;SDS011;1855;50.934;6.958;2023-07-20T13:05:29;2.75;;;1.20;;
3677;SDS011;1855;50.934;6.958;2023-07-20T13:07:57;1.75;;;1.02;;
3677;SDS011;1855;50.934;6.958;2023-07-20T13:10:24;1.60;;;1.20;;
3677;SDS011;1855;50.934;6.958;2023-07-20T13:12:51;2.65;;;1.20;;
3677;SDS011;1855;50.934;6.958;2023-07-20T13:15:17;1.35;;;1.10;;
3677;SDS011;1855;50.934;6.958;2023-07-20T13:17:44;1.50;;;0.85;;
3677;SDS011;1855;50.934;6.958;2023-07-20T13:20:13;1.80;;;1.00;;
3677;SDS011;1855;50.934;6.958;2023-07-20T13:22:40;1.60;;;1.50;;
3677;SDS011;1855;50.934;6.958;2023-07-20T13:25:07;2.50;;;1.10;;
3677;SDS011;1855;50.934;6.958;2023-07-20T13:27:35;1.52;;;0.90;;
3677;SDS011;1855;50.934;6.958;2023-07-20T13:30:02;2.60;;;1.10;;
3677;SDS011;1855;50.934;6.958;2023-07-20T13:32:33;1.60;;;0.98;;
3677;SDS011;1855;50.934;6.958;2023-07-20T13:34:59;1.40;;;1.00;;
3677;SDS011;1855;50.934;6.958;2023-07-20T13:37:27;1.97;;;1.10;;
3677;SDS011;1855;50.934;6.958;2023-07-20T13:39:54;1.90;;;0.90;;
3677;SDS011;1855;50.934;6.958;2023-07-20T13:42:21;2.10;;;1.30;;
3677;SDS011;1855;50.934;6.958;2023-07-20T13:44:47;2.50;;;1.10;;
3677;SDS011;1855;50.934;6.958;2023-07-20T13:47:14;1.77;;;1.20;;
3677;SDS011;1855;50.934;6.958;2023-07-20T13:49:41;2.90;;;1.10;;
3677;SDS011;1855;50.934;6.958;2023-07-20T13:52:09;1.60;;;1.00;;
3677;SDS011;1855;50.934;6.958;2023-07-20T13:54:37;2.00;;;1.00;;
3677;SDS011;1855;50.934;6.958;2023-07-20T13:57:04;1.47;;;1.00;;
3677;SDS011;1855;50.934;6.958;2023-07-20T13:59:31;2.20;;;0.90;;
3677;SDS011;1855;50.934;6.958;2023-07-20T14:01:58;1.55;;;0.90;;
3677;SDS011;1855;50.934;6.958;2023-07-20T14:04:25;2.70;;;0.90;;
3677;SDS011;1855;50.934;6.958;2023-07-20T14:06:51;1.00;;;0.80;;
3677;SDS011;1855;50.934;6.958;2023-07-20T14:09:18;1.80;;;0.80;;
3677;SDS011;1855;50.934;6.958;2023-07-20T14:11:46;1.00;;;0.70;;
3677;SDS011;1855;50.934;6.958;2023-07-20T14:14:13;0.90;;;0.60;;
3677;SDS011;1855;50.934;6.958;2023-07-20T14:16:39;1.50;;;0.50;;
3677;SDS011;1855;50.934;6.958;2023-07-20T14:19:06;0.70;;;0.50;;
3677;SDS011;1855;50.934;6.958;2023-07-20T14:21:33;1.30;;;0.67;;
3677;SDS011;1855;50.934;6.958;2023-07-20T14:24:00;0.63;;;0.50;;
3677;SDS011;1855;50.934;6.958;2023-07-20T14:26:27;0.70;;;0.50;;
3677;SDS011;1855;50.934;6.958;2023-07-20T14:28:55;1.50;;;0.60;;
3677;SDS011;1855;50.934;6.958;2023-07-20T14:31:21;0.70;;;0.52;;
3677;SDS011;1855;50.934;6.958;2023-07-20T14:33:48;1.73;;;0.50;;
3677;SDS011;1855;50.934;6.958;2023-07-20T14:36:15;1.58;;;0.60;;
3677;SDS011;1855;50.934;6.958;2023-07-20T14:38:42;2.85;;;0.60;;
3677;SDS011;1855;50.934;6.958;2023-07-20T14:41:09;1.83;;;0.50;;
3677;SDS011;1855;50.934;6.958;2023-07-20T14:43:35;1.20;;;0.63;;
3677;SDS011;1855;50.934;6.958;2023-07-20T14:46:04;0.70;;;0.50;;
3677;SDS011;1855;50.934;6.958;2023-07-20T14:48:31;1.00;;;0.55;;
3677;SDS011;1855;50.934;6.958;2023-07-20T14:50:58;1.50;;;0.70;;
3677;SDS011;1855;50.934;6.958;2023-07-20T14:53:25;0.65;;;0.60;;
3677;SDS011;1855;50.934;6.958;2023-07-20T14:55:57;0.70;;;0.50;;
3677;SDS011;1855;50.934;6.958;2023-07-20T14:58:25;1.52;;;0.50;;
3677;SDS011;1855;50.934;6.958;2023-07-20T15:00:51;1.80;;;0.50;;
3677;SDS011;1855;50.934;6.958;2023-07-20T15:03:19;1.05;;;0.70;;
3677;SDS011;1855;50.934;6.958;2023-07-20T15:05:46;1.50;;;0.63;;
3677;SDS011;1855;50.934;6.958;2023-07-20T15:08:13;1.10;;;0.50;;
3677;SDS011;1855;50.934;6.958;2023-07-20T15:10:39;0.90;;;0.50;;
3677;SDS011;1855;50.934;6.958;2023-07-20T15:13:07;0.90;;;0.47;;
3677;SDS011;1855;50.934;6.958;2023-07-20T15:15:33;0.52;;;0.50;;
3677;SDS011;1855;50.934;6.958;2023-07-20T15:18:00;0.70;;;0.50;;
3677;SDS011;1855;50.934;6.958;2023-07-20T15:20:28;1.50;;;0.80;;
3677;SDS011;1855;50.934;6.958;2023-07-20T15:22:57;1.97;;;1.10;;
3677;SDS011;1855;50.934;6.958;2023-07-20T15:25:23;1.40;;;0.80;;